Scroll down
FLIGHT INFORMATION
Olympic Air

OAL260

At Arrival Gate

KPAE
 LGAV
DATE: 2018-11-06
GATE:  -
GATE DEPARTURE: 01:39
TAKEOFF: 01:50
DATE: 2018-11-06
GATE:  -
LANDING: 13:39
GATE ARRIVAL: 13:45
FLIGHT DATA
Crew: 
Speed: 
922 kph
Altitude: 
41,015 ft
Stage Length: 
9,900.9 km
Block Time: 
12.1 hrs
Flight Time: 
11.8 hrs
Fuel Used: 
102,162 kg
Cleared Route: PAE HUH HUH03 COGLE SHARD VITEV BOOTH SPUZZ MERYT ICOLA STUMM YNY BOJAM CALLY SELUM ALGAR YMM 62N00 6591N 6780N 6870N 6860N 6850N 6740N 6530N 6320N ATSIX AKIVO LARDI TOPPA LIRSU NOSPA KRH LAMGO UTABA MOMUK BEMKI XEBIX ELMEM BILDU OTRES GIRIS TISAX NAXAV GIKEB LAMPO AKADO AGOMO BUSER GISNU XAPAT TIGRA BEDEX ROTSA SOTEG ARA NEMES
TRACK DATA
50,000 ft 1,000 kts
AIRCRAFT INFO AND CUMULATIVE STATS
Aircraft Type: 
B748
Registration: 
SELCAL: 
MSN/LN: 
0 / 1
Operator: 
Total Flights: 
6
Total Block Time: 
27.6 hrs
Total Flight Time: 
26.2 hrs
Total Fuel Used: 
233,890 kg
DATALINK LOG | Newest first | Current as of: 2022-09-25 17:10:34
LABEL SEQUENCE CONTENT Dn/Up
QD451513:45 36.6▼ Dn
QC360113:36▼ Dn
463724/OV ELMEM /TM 1137 /FL040 /TP B748 /TA -30 /WV 184/35 /TB MOD /RM ▼ Dn
2U1955LGAV 061050Z 04021KT 9999 FEW030 19/10 Q1019 NOSIG▲ Up
2S1955LGAV▼ Dn
2U2708LGAV 060850Z 04020KT 9999 FEW030 18/10 Q1020 NOSIG▲ Up
2S2708LGAV▼ Dn
462403/OV 6591N /TM 0424 /FL370 /TP B748 /SK BKN /WX BR VIS CLR /TA -15 /WV 249/23 /RM NONE▼ Dn
QB465201:46▼ Dn
QA351501:35 261.9▼ Dn
2U2122KPAE 060053Z 08006KT 10SM FEW046 OVC060 11/09 A3004 RMK AO2 SLP174 T01060094▲ Up
2S2122KPAE▼ Dn


AIRCRAFT HISTORY
FLIGHT DATE FLIGHT NO. ORIGIN DESTINATION CLEARED ROUTE BLOCK TIME FLIGHT TIME FUEL USED PILOT
2022-01-16OAL519KBUF KBOS KBUF GEE PONCT KBOS1.2 hrs1 hrs27,293 lbChemtrails
2019-03-22OAL519KATL KBUF KATL MPASS ZELAN PADGT COLVN SMTTH CEMEX IBATE TONIO TAFTT JONEN HNN EWC DKK ZOBSO RW051.8 hrs1.6 hrs36,762 lbChemtrails
2018-12-04OAL260CYYR KATL YYR YRI FLEUR CFB PSB PSYKO EMNEM GEFFS ASERY WISTA KONGO HLRRY STRWY4.2 hrs3.9 hrs69,450 lbChris Makris
2018-11-23OAL260LGAV CYYR RIMAX XANIS YNN VJOSA PAPIZ GONOT CRAYE GISAM RILIM SAL LABIN SUXAN VALAV RONAG ARGAX ELMUR MANEG RIPUS DITON HOC NATLI LUL IXILU RESPO RLP ROTSI KOTUN PODUK DIDOR IRBAL NITAR ABNUR DIMAL ALESO ROTNO ETVAX TIGER BIG GOXUL LINDY NORRY CPT KENET UGNUS OKTAD TALGA LANON BADSI LIPGO RESNO 5620N 5730N 5740N 5650N JANJO YRI FLEUR CFB PSK SPA92 DGESS8.1 hrs7.9 hrs156,907 lbChris Makris
2018-11-23OAL260LGAV LGAV RIMAX XANIS YNN VJOSA PAPIZ GONOT CRAYE GISAM RILIM SAL LABIN SUXAN VALAV RONAG ARGAX ELMUR MANEG RIPUS DITON HOC NATLI LUL IXILU RESPO RLP ROTSI KOTUN PODUK DIDOR IRBAL NITAR ABNUR DIMAL ALESO ROTNO ETVAX TIGER BIG GOXUL LINDY NORRY CPT KENET UGNUS OKTAD TALGA LANON BADSI LIPGO RESNO 5620N 5730N 5740N 5650N JANJO YRI FLEUR CFB PSK SPA92 DGESS0.1 hrs0 hrs0 lbChris Makris
2018-11-06OAL260KPAE LGAV PAE HUH HUH03 COGLE SHARD VITEV BOOTH SPUZZ MERYT ICOLA STUMM YNY BOJAM CALLY SELUM ALGAR YMM 62N00 6591N 6780N 6870N 6860N 6850N 6740N 6530N 6320N ATSIX AKIVO LARDI TOPPA LIRSU NOSPA KRH LAMGO UTABA MOMUK BEMKI XEBIX ELMEM BILDU OTRES GIRIS TISAX NAXAV GIKEB LAMPO AKADO AGOMO BUSER GISNU XAPAT TIGRA BEDEX ROTSA SOTEG ARA NEMES12.1 hrs11.8 hrs225,228 lbChris Makris